sensor_id;sensor_type;location;lat;lon;timestamp;temperature;humidity
1778;DHT22;886;50.082;8.222;2023-03-23T00:01:51;12.00;99.90
1778;DHT22;886;50.082;8.222;2023-03-23T00:04:18;12.00;99.90
1778;DHT22;886;50.082;8.222;2023-03-23T00:06:44;11.90;99.90
1778;DHT22;886;50.082;8.222;2023-03-23T00:09:11;11.90;99.90
1778;DHT22;886;50.082;8.222;2023-03-23T00:11:38;11.90;99.90
1778;DHT22;886;50.082;8.222;2023-03-23T00:14:08;11.90;99.90
1778;DHT22;886;50.082;8.222;2023-03-23T00:16:39;11.90;99.90
1778;DHT22;886;50.082;8.222;2023-03-23T00:19:10;11.90;99.90
1778;DHT22;886;50.082;8.222;2023-03-23T00:21:41;11.90;99.90
1778;DHT22;886;50.082;8.222;2023-03-23T00:24:10;11.90;99.90
1778;DHT22;886;50.082;8.222;2023-03-23T00:26:38;11.90;99.90
1778;DHT22;886;50.082;8.222;2023-03-23T00:29:12;11.90;99.90
1778;DHT22;886;50.082;8.222;2023-03-23T00:31:39;11.90;99.90
1778;DHT22;886;50.082;8.222;2023-03-23T00:34:06;11.90;99.90
1778;DHT22;886;50.082;8.222;2023-03-23T00:36:38;11.90;99.90
1778;DHT22;886;50.082;8.222;2023-03-23T00:39:08;11.90;99.90
1778;DHT22;886;50.082;8.222;2023-03-23T00:41:35;11.90;99.90
1778;DHT22;886;50.082;8.222;2023-03-23T00:44:02;11.90;99.90
1778;DHT22;886;50.082;8.222;2023-03-23T00:46:28;11.90;99.90
1778;DHT22;886;50.082;8.222;2023-03-23T00:48:54;11.90;99.90
1778;DHT22;886;50.082;8.222;2023-03-23T00:51:23;11.90;99.90
1778;DHT22;886;50.082;8.222;2023-03-23T00:53:49;11.90;99.90
1778;DHT22;886;50.082;8.222;2023-03-23T00:56:15;11.80;99.90
1778;DHT22;886;50.082;8.222;2023-03-23T00:58:42;11.80;99.90
1778;DHT22;886;50.082;8.222;2023-03-23T01:01:09;11.70;99.90
1778;DHT22;886;50.082;8.222;2023-03-23T01:03:36;11.70;99.90
1778;DHT22;886;50.082;8.222;2023-03-23T01:06:06;11.70;99.90
1778;DHT22;886;50.082;8.222;2023-03-23T01:08:35;11.70;99.90
1778;DHT22;886;50.082;8.222;2023-03-23T01:11:06;11.70;99.90
1778;DHT22;886;50.082;8.222;2023-03-23T01:13:33;11.80;99.90
1778;DHT22;886;50.082;8.222;2023-03-23T01:15:59;11.70;99.90
1778;DHT22;886;50.082;8.222;2023-03-23T01:18:26;11.70;99.90
1778;DHT22;886;50.082;8.222;2023-03-23T01:20:52;11.70;99.90
1778;DHT22;886;50.082;8.222;2023-03-23T01:23:18;11.70;99.90
1778;DHT22;886;50.082;8.222;2023-03-23T01:25:46;11.70;99.90
1778;DHT22;886;50.082;8.222;2023-03-23T01:28:12;11.70;99.90
1778;DHT22;886;50.082;8.222;2023-03-23T01:30:38;11.70;99.90
1778;DHT22;886;50.082;8.222;2023-03-23T01:33:05;11.80;99.90
1778;DHT22;886;50.082;8.222;2023-03-23T01:35:30;11.70;99.90
1778;DHT22;886;50.082;8.222;2023-03-23T01:37:57;11.70;99.90
1778;DHT22;886;50.082;8.222;2023-03-23T01:40:26;11.90;99.90
1778;DHT22;886;50.082;8.222;2023-03-23T01:42:54;11.90;99.90
1778;DHT22;886;50.082;8.222;2023-03-23T01:45:27;11.90;99.90
1778;DHT22;886;50.082;8.222;2023-03-23T01:48:01;11.90;99.90
1778;DHT22;886;50.082;8.222;2023-03-23T01:50:36;11.90;99.90
1778;DHT22;886;50.082;8.222;2023-03-23T01:53:07;12.00;99.90
1778;DHT22;886;50.082;8.222;2023-03-23T01:55:36;11.90;99.90
1778;DHT22;886;50.082;8.222;2023-03-23T01:58:06;12.00;99.90
1778;DHT22;886;50.082;8.222;2023-03-23T02:00:33;12.00;99.90
1778;DHT22;886;50.082;8.222;2023-03-23T02:03:00;12.00;99.90
1778;DHT22;886;50.082;8.222;2023-03-23T02:05:30;12.10;99.90
1778;DHT22;886;50.082;8.222;2023-03-23T02:07:59;12.00;99.90
1778;DHT22;886;50.082;8.222;2023-03-23T02:10:30;12.10;99.90
1778;DHT22;886;50.082;8.222;2023-03-23T02:12:57;12.00;99.90
1778;DHT22;886;50.082;8.222;2023-03-23T02:15:27;12.10;99.90
1778;DHT22;886;50.082;8.222;2023-03-23T02:18:04;12.00;99.90
1778;DHT22;886;50.082;8.222;2023-03-23T02:20:48;12.00;99.90
1778;DHT22;886;50.082;8.222;2023-03-23T02:23:50;12.00;99.90
1778;DHT22;886;50.082;8.222;2023-03-23T02:26:32;12.10;99.90
1778;DHT22;886;50.082;8.222;2023-03-23T02:32:28;12.10;99.90
1778;DHT22;886;50.082;8.222;2023-03-23T02:35:08;12.00;99.90
1778;DHT22;886;50.082;8.222;2023-03-23T02:37:40;11.90;99.90
1778;DHT22;886;50.082;8.222;2023-03-23T02:40:15;11.90;99.90
1778;DHT22;886;50.082;8.222;2023-03-23T02:42:46;12.00;99.90
1778;DHT22;886;50.082;8.222;2023-03-23T02:45:16;11.90;99.90
1778;DHT22;886;50.082;8.222;2023-03-23T02:47:43;12.00;99.90
1778;DHT22;886;50.082;8.222;2023-03-23T02:50:14;12.00;99.90
1778;DHT22;886;50.082;8.222;2023-03-23T02:52:42;12.00;99.90
1778;DHT22;886;50.082;8.222;2023-03-23T02:55:11;12.00;99.90
1778;DHT22;886;50.082;8.222;2023-03-23T02:57:37;12.00;99.90
1778;DHT22;886;50.082;8.222;2023-03-23T03:00:05;12.00;99.90
1778;DHT22;886;50.082;8.222;2023-03-23T03:05:33;11.80;99.90
1778;DHT22;886;50.082;8.222;2023-03-23T03:08:15;11.70;99.90
1778;DHT22;886;50.082;8.222;2023-03-23T03:10:50;11.70;99.90
1778;DHT22;886;50.082;8.222;2023-03-23T03:13:25;11.70;99.90
1778;DHT22;886;50.082;8.222;2023-03-23T03:16:00;11.70;99.90
1778;DHT22;886;50.082;8.222;2023-03-23T03:18:33;11.60;99.90
1778;DHT22;886;50.082;8.222;2023-03-23T03:21:06;11.60;99.90
1778;DHT22;886;50.082;8.222;2023-03-23T03:23:35;11.70;99.90
1778;DHT22;886;50.082;8.222;2023-03-23T03:26:07;11.60;99.90
1778;DHT22;886;50.082;8.222;2023-03-23T03:28:36;11.60;99.90
1778;DHT22;886;50.082;8.222;2023-03-23T03:31:04;11.60;99.90
1778;DHT22;886;50.082;8.222;2023-03-23T03:33:32;11.70;99.90
1778;DHT22;886;50.082;8.222;2023-03-23T03:36:01;11.70;99.90
1778;DHT22;886;50.082;8.222;2023-03-23T03:38:41;11.60;99.90
1778;DHT22;886;50.082;8.222;2023-03-23T03:41:08;11.50;99.90
1778;DHT22;886;50.082;8.222;2023-03-23T03:43:35;11.60;99.90
1778;DHT22;886;50.082;8.222;2023-03-23T03:46:01;11.50;99.90
1778;DHT22;886;50.082;8.222;2023-03-23T03:48:28;11.50;99.90
1778;DHT22;886;50.082;8.222;2023-03-23T03:50:54;11.40;99.90
1778;DHT22;886;50.082;8.222;2023-03-23T03:53:23;11.40;99.90
1778;DHT22;886;50.082;8.222;2023-03-23T03:55:49;11.40;99.90
1778;DHT22;886;50.082;8.222;2023-03-23T03:58:15;11.50;99.90
1778;DHT22;886;50.082;8.222;2023-03-23T04:00:42;11.60;99.90
1778;DHT22;886;50.082;8.222;2023-03-23T04:03:08;11.60;99.90
1778;DHT22;886;50.082;8.222;2023-03-23T04:05:35;11.60;99.90
1778;DHT22;886;50.082;8.222;2023-03-23T04:08:03;11.60;99.90
1778;DHT22;886;50.082;8.222;2023-03-23T04:10:31;11.60;99.90
1778;DHT22;886;50.082;8.222;2023-03-23T04:12:58;11.70;99.90
1778;DHT22;886;50.082;8.222;2023-03-23T04:15:24;11.70;99.90
1778;DHT22;886;50.082;8.222;2023-03-23T04:17:51;11.70;99.90
1778;DHT22;886;50.082;8.222;2023-03-23T04:20:17;11.80;99.90
1778;DHT22;886;50.082;8.222;2023-03-23T04:22:44;11.80;99.90
1778;DHT22;886;50.082;8.222;2023-03-23T04:25:15;11.90;99.90
1778;DHT22;886;50.082;8.222;2023-03-23T04:27:48;12.00;99.90
1778;DHT22;886;50.082;8.222;2023-03-23T04:30:19;12.10;99.90
1778;DHT22;886;50.082;8.222;2023-03-23T04:32:48;12.20;99.90
1778;DHT22;886;50.082;8.222;2023-03-23T04:35:17;12.30;99.90
1778;DHT22;886;50.082;8.222;2023-03-23T04:37:44;12.40;99.90
1778;DHT22;886;50.082;8.222;2023-03-23T04:40:11;12.50;99.90
1778;DHT22;886;50.082;8.222;2023-03-23T04:42:41;12.50;99.90
1778;DHT22;886;50.082;8.222;2023-03-23T04:45:15;12.60;99.90
1778;DHT22;886;50.082;8.222;2023-03-23T04:47:47;12.60;99.90
1778;DHT22;886;50.082;8.222;2023-03-23T04:50:20;12.70;99.90
1778;DHT22;886;50.082;8.222;2023-03-23T04:52:50;12.70;99.90
1778;DHT22;886;50.082;8.222;2023-03-23T04:55:18;12.70;99.90
1778;DHT22;886;50.082;8.222;2023-03-23T04:57:46;12.80;99.90
1778;DHT22;886;50.082;8.222;2023-03-23T05:00:14;12.80;99.90
1778;DHT22;886;50.082;8.222;2023-03-23T05:02:43;12.80;99.90
1778;DHT22;886;50.082;8.222;2023-03-23T05:05:11;12.90;99.90
1778;DHT22;886;50.082;8.222;2023-03-23T05:07:39;12.90;99.90
1778;DHT22;886;50.082;8.222;2023-03-23T05:10:08;12.90;99.90
1778;DHT22;886;50.082;8.222;2023-03-23T05:12:36;12.90;99.90
1778;DHT22;886;50.082;8.222;2023-03-23T05:15:02;12.90;99.90
1778;DHT22;886;50.082;8.222;2023-03-23T05:17:31;12.90;99.90
1778;DHT22;886;50.082;8.222;2023-03-23T05:19:57;13.00;99.90
1778;DHT22;886;50.082;8.222;2023-03-23T05:22:26;13.00;99.90
1778;DHT22;886;50.082;8.222;2023-03-23T05:24:53;13.00;99.90
1778;DHT22;886;50.082;8.222;2023-03-23T05:27:19;13.00;99.90
1778;DHT22;886;50.082;8.222;2023-03-23T05:29:46;13.00;99.90
1778;DHT22;886;50.082;8.222;2023-03-23T05:32:15;13.00;99.90
1778;DHT22;886;50.082;8.222;2023-03-23T05:34:43;13.00;99.90
1778;DHT22;886;50.082;8.222;2023-03-23T05:37:10;13.00;99.90
1778;DHT22;886;50.082;8.222;2023-03-23T05:39:38;13.00;99.90
1778;DHT22;886;50.082;8.222;2023-03-23T05:42:04;13.00;99.90
1778;DHT22;886;50.082;8.222;2023-03-23T05:44:32;13.00;99.90
1778;DHT22;886;50.082;8.222;2023-03-23T05:46:58;13.00;99.90
1778;DHT22;886;50.082;8.222;2023-03-23T05:49:24;13.10;99.90
1778;DHT22;886;50.082;8.222;2023-03-23T05:51:54;13.10;99.90
1778;DHT22;886;50.082;8.222;2023-03-23T05:54:20;13.10;99.90
1778;DHT22;886;50.082;8.222;2023-03-23T05:56:46;13.10;99.90
1778;DHT22;886;50.082;8.222;2023-03-23T05:59:12;13.10;99.90
1778;DHT22;886;50.082;8.222;2023-03-23T06:01:38;13.10;99.90
1778;DHT22;886;50.082;8.222;2023-03-23T06:04:04;13.10;99.90
1778;DHT22;886;50.082;8.222;2023-03-23T06:06:31;13.10;99.90
1778;DHT22;886;50.082;8.222;2023-03-23T06:08:59;13.10;99.90
1778;DHT22;886;50.082;8.222;2023-03-23T06:11:25;13.10;99.90
1778;DHT22;886;50.082;8.222;2023-03-23T06:14:11;13.10;99.90
1778;DHT22;886;50.082;8.222;2023-03-23T06:16:38;13.10;99.90
1778;DHT22;886;50.082;8.222;2023-03-23T06:19:04;13.10;99.90
1778;DHT22;886;50.082;8.222;2023-03-23T06:21:30;13.10;99.90
1778;DHT22;886;50.082;8.222;2023-03-23T06:23:58;13.10;99.90
1778;DHT22;886;50.082;8.222;2023-03-23T06:26:30;13.20;99.90
1778;DHT22;886;50.082;8.222;2023-03-23T06:28:58;13.20;99.90
1778;DHT22;886;50.082;8.222;2023-03-23T06:31:25;13.20;99.90
1778;DHT22;886;50.082;8.222;2023-03-23T06:33:52;13.30;99.90
1778;DHT22;886;50.082;8.222;2023-03-23T06:36:19;13.30;99.90
1778;DHT22;886;50.082;8.222;2023-03-23T06:38:45;13.30;99.90
1778;DHT22;886;50.082;8.222;2023-03-23T06:41:13;13.30;99.90
1778;DHT22;886;50.082;8.222;2023-03-23T06:43:39;13.30;99.90
1778;DHT22;886;50.082;8.222;2023-03-23T06:46:06;13.40;99.90
1778;DHT22;886;50.082;8.222;2023-03-23T06:48:32;13.40;99.90
1778;DHT22;886;50.082;8.222;2023-03-23T06:50:58;13.50;99.90
1778;DHT22;886;50.082;8.222;2023-03-23T06:53:24;13.50;99.90
1778;DHT22;886;50.082;8.222;2023-03-23T06:55:51;13.50;99.90
1778;DHT22;886;50.082;8.222;2023-03-23T06:58:18;13.50;99.90
1778;DHT22;886;50.082;8.222;2023-03-23T07:00:45;13.50;99.90
1778;DHT22;886;50.082;8.222;2023-03-23T07:03:11;13.50;99.90
1778;DHT22;886;50.082;8.222;2023-03-23T07:05:37;13.50;99.90
1778;DHT22;886;50.082;8.222;2023-03-23T07:08:04;13.40;99.90
1778;DHT22;886;50.082;8.222;2023-03-23T07:10:31;13.40;99.90
1778;DHT22;886;50.082;8.222;2023-03-23T07:12:58;13.30;99.90
1778;DHT22;886;50.082;8.222;2023-03-23T07:15:26;13.40;99.90
1778;DHT22;886;50.082;8.222;2023-03-23T07:17:53;13.40;99.90
1778;DHT22;886;50.082;8.222;2023-03-23T07:20:20;13.40;99.90
1778;DHT22;886;50.082;8.222;2023-03-23T07:22:46;13.30;99.90
1778;DHT22;886;50.082;8.222;2023-03-23T07:25:12;13.40;99.90
1778;DHT22;886;50.082;8.222;2023-03-23T07:27:38;13.30;99.90
1778;DHT22;886;50.082;8.222;2023-03-23T07:30:06;13.40;99.90
1778;DHT22;886;50.082;8.222;2023-03-23T07:32:34;13.40;99.90
1778;DHT22;886;50.082;8.222;2023-03-23T07:35:00;13.40;99.90
1778;DHT22;886;50.082;8.222;2023-03-23T07:37:26;13.40;99.90
1778;DHT22;886;50.082;8.222;2023-03-23T07:39:53;13.50;99.90
1778;DHT22;886;50.082;8.222;2023-03-23T07:42:20;13.60;99.90
1778;DHT22;886;50.082;8.222;2023-03-23T07:44:46;13.70;99.90
1778;DHT22;886;50.082;8.222;2023-03-23T07:47:12;13.70;99.90
1778;DHT22;886;50.082;8.222;2023-03-23T07:49:39;13.80;99.90
1778;DHT22;886;50.082;8.222;2023-03-23T07:52:05;13.80;99.90
1778;DHT22;886;50.082;8.222;2023-03-23T07:54:31;13.80;99.90
1778;DHT22;886;50.082;8.222;2023-03-23T07:56:57;13.80;99.90
1778;DHT22;886;50.082;8.222;2023-03-23T07:59:23;13.80;99.90
1778;DHT22;886;50.082;8.222;2023-03-23T08:01:49;13.80;99.90
1778;DHT22;886;50.082;8.222;2023-03-23T08:04:15;13.80;99.90
1778;DHT22;886;50.082;8.222;2023-03-23T08:06:42;13.80;99.90
1778;DHT22;886;50.082;8.222;2023-03-23T08:09:09;13.80;99.90
1778;DHT22;886;50.082;8.222;2023-03-23T08:11:35;13.90;99.90
1778;DHT22;886;50.082;8.222;2023-03-23T08:14:02;14.00;99.90
1778;DHT22;886;50.082;8.222;2023-03-23T08:16:30;14.00;99.90
1778;DHT22;886;50.082;8.222;2023-03-23T08:18:56;14.00;99.90
1778;DHT22;886;50.082;8.222;2023-03-23T08:21:22;14.10;99.90
1778;DHT22;886;50.082;8.222;2023-03-23T08:23:50;14.20;99.90
1778;DHT22;886;50.082;8.222;2023-03-23T08:26:16;14.20;99.90
1778;DHT22;886;50.082;8.222;2023-03-23T08:28:43;14.30;99.90
1778;DHT22;886;50.082;8.222;2023-03-23T08:31:11;14.30;99.90
1778;DHT22;886;50.082;8.222;2023-03-23T08:33:39;14.30;99.90
1778;DHT22;886;50.082;8.222;2023-03-23T08:36:25;14.30;99.90
1778;DHT22;886;50.082;8.222;2023-03-23T08:38:52;14.60;99.90
1778;DHT22;886;50.082;8.222;2023-03-23T08:41:20;14.60;99.90
1778;DHT22;886;50.082;8.222;2023-03-23T08:43:46;14.80;99.90
1778;DHT22;886;50.082;8.222;2023-03-23T08:46:12;15.00;99.90
1778;DHT22;886;50.082;8.222;2023-03-23T08:48:39;15.30;99.90
1778;DHT22;886;50.082;8.222;2023-03-23T08:51:06;15.40;99.90
1778;DHT22;886;50.082;8.222;2023-03-23T08:53:34;15.50;99.90
1778;DHT22;886;50.082;8.222;2023-03-23T08:56:05;15.50;99.90
1778;DHT22;886;50.082;8.222;2023-03-23T08:58:32;15.50;99.90
1778;DHT22;886;50.082;8.222;2023-03-23T09:00:59;15.50;99.90
1778;DHT22;886;50.082;8.222;2023-03-23T09:03:26;15.50;99.90
1778;DHT22;886;50.082;8.222;2023-03-23T09:05:52;15.50;99.90
1778;DHT22;886;50.082;8.222;2023-03-23T09:08:19;15.40;99.90
1778;DHT22;886;50.082;8.222;2023-03-23T09:10:45;15.40;99.90
1778;DHT22;886;50.082;8.222;2023-03-23T09:13:13;15.50;99.90
1778;DHT22;886;50.082;8.222;2023-03-23T09:15:39;15.60;99.90
1778;DHT22;886;50.082;8.222;2023-03-23T09:18:06;15.80;99.90
1778;DHT22;886;50.082;8.222;2023-03-23T09:20:32;16.00;99.90
1778;DHT22;886;50.082;8.222;2023-03-23T09:22:59;16.00;99.90
1778;DHT22;886;50.082;8.222;2023-03-23T09:25:27;16.10;99.90
1778;DHT22;886;50.082;8.222;2023-03-23T09:27:54;16.00;99.90
1778;DHT22;886;50.082;8.222;2023-03-23T09:30:25;16.00;99.90
1778;DHT22;886;50.082;8.222;2023-03-23T09:32:52;15.90;99.90
1778;DHT22;886;50.082;8.222;2023-03-23T09:35:20;15.90;99.90
1778;DHT22;886;50.082;8.222;2023-03-23T09:37:51;15.90;99.90
1778;DHT22;886;50.082;8.222;2023-03-23T09:40:20;15.80;99.90
1778;DHT22;886;50.082;8.222;2023-03-23T09:42:57;15.80;99.90
1778;DHT22;886;50.082;8.222;2023-03-23T09:45:35;15.80;99.90
1778;DHT22;886;50.082;8.222;2023-03-23T09:48:22;15.70;99.90
1778;DHT22;886;50.082;8.222;2023-03-23T09:51:00;15.70;99.90
1778;DHT22;886;50.082;8.222;2023-03-23T09:53:34;15.60;99.90
1778;DHT22;886;50.082;8.222;2023-03-23T09:56:09;15.40;99.90
1778;DHT22;886;50.082;8.222;2023-03-23T09:58:42;15.60;99.90
1778;DHT22;886;50.082;8.222;2023-03-23T10:01:17;15.70;99.90
1778;DHT22;886;50.082;8.222;2023-03-23T10:03:46;15.80;99.90
1778;DHT22;886;50.082;8.222;2023-03-23T10:06:16;15.80;99.90
1778;DHT22;886;50.082;8.222;2023-03-23T10:08:45;15.80;99.90
1778;DHT22;886;50.082;8.222;2023-03-23T10:11:16;15.90;99.90
1778;DHT22;886;50.082;8.222;2023-03-23T10:14:06;15.90;99.90
1778;DHT22;886;50.082;8.222;2023-03-23T10:16:40;15.90;99.90
1778;DHT22;886;50.082;8.222;2023-03-23T10:19:12;15.80;99.90
1778;DHT22;886;50.082;8.222;2023-03-23T10:21:44;15.90;99.90
1778;DHT22;886;50.082;8.222;2023-03-23T10:24:20;15.80;99.90
1778;DHT22;886;50.082;8.222;2023-03-23T10:26:57;15.80;99.90
1778;DHT22;886;50.082;8.222;2023-03-23T10:29:29;15.70;99.90
1778;DHT22;886;50.082;8.222;2023-03-23T10:32:02;15.70;99.90
1778;DHT22;886;50.082;8.222;2023-03-23T10:34:41;15.70;99.90
1778;DHT22;886;50.082;8.222;2023-03-23T10:37:13;15.80;99.90
1778;DHT22;886;50.082;8.222;2023-03-23T10:39:47;15.90;99.90
1778;DHT22;886;50.082;8.222;2023-03-23T10:42:22;15.90;99.90
1778;DHT22;886;50.082;8.222;2023-03-23T10:44:50;15.90;99.90
1778;DHT22;886;50.082;8.222;2023-03-23T10:47:17;15.80;99.90
1778;DHT22;886;50.082;8.222;2023-03-23T10:49:46;15.70;99.90
1778;DHT22;886;50.082;8.222;2023-03-23T10:52:24;15.70;99.90
1778;DHT22;886;50.082;8.222;2023-03-23T10:54:56;15.70;99.90
1778;DHT22;886;50.082;8.222;2023-03-23T10:57:25;15.60;99.90
1778;DHT22;886;50.082;8.222;2023-03-23T10:59:59;15.50;99.90
1778;DHT22;886;50.082;8.222;2023-03-23T11:02:28;15.50;99.90
1778;DHT22;886;50.082;8.222;2023-03-23T11:04:57;15.50;99.90
1778;DHT22;886;50.082;8.222;2023-03-23T11:07:28;15.60;99.90
1778;DHT22;886;50.082;8.222;2023-03-23T11:09:57;15.80;99.90
1778;DHT22;886;50.082;8.222;2023-03-23T11:12:34;16.10;99.90
1778;DHT22;886;50.082;8.222;2023-03-23T11:15:15;16.30;99.90
1778;DHT22;886;50.082;8.222;2023-03-23T11:17:59;16.40;99.90
1778;DHT22;886;50.082;8.222;2023-03-23T11:20:28;16.60;99.90
1778;DHT22;886;50.082;8.222;2023-03-23T11:22:59;16.60;99.90
1778;DHT22;886;50.082;8.222;2023-03-23T11:25:25;16.70;99.90
1778;DHT22;886;50.082;8.222;2023-03-23T11:27:52;16.70;99.90
1778;DHT22;886;50.082;8.222;2023-03-23T11:30:23;16.50;99.90
1778;DHT22;886;50.082;8.222;2023-03-23T11:32:51;16.40;99.90
1778;DHT22;886;50.082;8.222;2023-03-23T11:35:21;16.10;99.90
1778;DHT22;886;50.082;8.222;2023-03-23T11:37:51;16.00;99.90
1778;DHT22;886;50.082;8.222;2023-03-23T11:40:20;15.90;99.90
1778;DHT22;886;50.082;8.222;2023-03-23T11:42:49;15.80;99.90
1778;DHT22;886;50.082;8.222;2023-03-23T11:45:31;15.70;99.90
1778;DHT22;886;50.082;8.222;2023-03-23T11:48:07;15.70;99.90
1778;DHT22;886;50.082;8.222;2023-03-23T11:50:47;15.80;99.90
1778;DHT22;886;50.082;8.222;2023-03-23T11:53:25;15.70;99.90
1778;DHT22;886;50.082;8.222;2023-03-23T11:56:05;15.70;99.90
1778;DHT22;886;50.082;8.222;2023-03-23T11:58:35;15.60;99.90
1778;DHT22;886;50.082;8.222;2023-03-23T12:01:06;15.60;99.90
1778;DHT22;886;50.082;8.222;2023-03-23T12:03:56;15.60;99.90
1778;DHT22;886;50.082;8.222;2023-03-23T12:06:50;15.50;99.90
1778;DHT22;886;50.082;8.222;2023-03-23T12:09:29;15.70;99.90
1778;DHT22;886;50.082;8.222;2023-03-23T12:12:12;15.70;99.90
1778;DHT22;886;50.082;8.222;2023-03-23T12:14:48;15.90;99.90
1778;DHT22;886;50.082;8.222;2023-03-23T12:17:27;16.30;99.90
1778;DHT22;886;50.082;8.222;2023-03-23T12:20:17;16.50;99.90
1778;DHT22;886;50.082;8.222;2023-03-23T12:22:58;16.70;99.90
1778;DHT22;886;50.082;8.222;2023-03-23T12:28:39;16.90;99.90
1778;DHT22;886;50.082;8.222;2023-03-23T12:31:15;17.10;99.90
1778;DHT22;886;50.082;8.222;2023-03-23T12:33:54;17.20;99.90
1778;DHT22;886;50.082;8.222;2023-03-23T12:36:29;17.20;99.90
1778;DHT22;886;50.082;8.222;2023-03-23T12:39:42;17.10;99.90
1778;DHT22;886;50.082;8.222;2023-03-23T12:42:21;16.90;99.90
1778;DHT22;886;50.082;8.222;2023-03-23T12:44:54;16.80;99.90
1778;DHT22;886;50.082;8.222;2023-03-23T12:47:34;16.80;99.90
1778;DHT22;886;50.082;8.222;2023-03-23T12:50:07;16.80;99.90
1778;DHT22;886;50.082;8.222;2023-03-23T12:52:41;16.80;99.90
1778;DHT22;886;50.082;8.222;2023-03-23T12:55:18;16.80;99.90
1778;DHT22;886;50.082;8.222;2023-03-23T12:57:51;16.80;99.90
1778;DHT22;886;50.082;8.222;2023-03-23T13:00:24;16.90;99.90
1778;DHT22;886;50.082;8.222;2023-03-23T13:02:58;16.90;99.90
1778;DHT22;886;50.082;8.222;2023-03-23T13:05:34;16.80;99.90
1778;DHT22;886;50.082;8.222;2023-03-23T13:08:24;16.90;99.90
1778;DHT22;886;50.082;8.222;2023-03-23T13:10:57;17.10;99.90
1778;DHT22;886;50.082;8.222;2023-03-23T13:13:39;17.20;99.90
1778;DHT22;886;50.082;8.222;2023-03-23T13:16:11;17.20;99.90
1778;DHT22;886;50.082;8.222;2023-03-23T13:18:46;17.20;99.90
1778;DHT22;886;50.082;8.222;2023-03-23T13:21:19;17.40;99.90
1778;DHT22;886;50.082;8.222;2023-03-23T13:23:49;17.50;99.90
1778;DHT22;886;50.082;8.222;2023-03-23T13:26:20;17.40;99.90
1778;DHT22;886;50.082;8.222;2023-03-23T13:28:55;17.40;99.90
1778;DHT22;886;50.082;8.222;2023-03-23T13:31:25;17.40;99.90
1778;DHT22;886;50.082;8.222;2023-03-23T13:34:05;17.40;99.90
1778;DHT22;886;50.082;8.222;2023-03-23T13:36:37;17.30;99.90
1778;DHT22;886;50.082;8.222;2023-03-23T13:39:06;17.20;99.90
1778;DHT22;886;50.082;8.222;2023-03-23T13:42:00;17.10;99.90
1778;DHT22;886;50.082;8.222;2023-03-23T13:44:41;17.10;99.90
1778;DHT22;886;50.082;8.222;2023-03-23T13:47:21;17.10;99.90
1778;DHT22;886;50.082;8.222;2023-03-23T13:49:55;17.10;99.90
1778;DHT22;886;50.082;8.222;2023-03-23T13:52:24;16.90;99.90
1778;DHT22;886;50.082;8.222;2023-03-23T13:58:21;16.70;99.90
1778;DHT22;886;50.082;8.222;2023-03-23T14:00:50;16.50;99.90
1778;DHT22;886;50.082;8.222;2023-03-23T14:03:33;16.50;99.90
1778;DHT22;886;50.082;8.222;2023-03-23T14:06:04;16.50;99.90
1778;DHT22;886;50.082;8.222;2023-03-23T14:08:40;16.50;99.90
1778;DHT22;886;50.082;8.222;2023-03-23T14:11:14;16.50;99.90
1778;DHT22;886;50.082;8.222;2023-03-23T14:13:47;16.50;99.90
1778;DHT22;886;50.082;8.222;2023-03-23T14:16:20;16.40;99.90
1778;DHT22;886;50.082;8.222;2023-03-23T14:18:53;16.30;99.90
1778;DHT22;886;50.082;8.222;2023-03-23T14:21:35;16.20;99.90
1778;DHT22;886;50.082;8.222;2023-03-23T14:24:09;16.10;99.90
1778;DHT22;886;50.082;8.222;2023-03-23T14:26:36;16.00;99.90
1778;DHT22;886;50.082;8.222;2023-03-23T14:29:04;16.00;99.90
1778;DHT22;886;50.082;8.222;2023-03-23T14:31:32;16.00;99.90
1778;DHT22;886;50.082;8.222;2023-03-23T14:34:02;15.90;99.90
1778;DHT22;886;50.082;8.222;2023-03-23T14:36:30;15.90;99.90
1778;DHT22;886;50.082;8.222;2023-03-23T14:39:04;15.90;99.90
1778;DHT22;886;50.082;8.222;2023-03-23T14:41:33;16.00;99.90
1778;DHT22;886;50.082;8.222;2023-03-23T14:44:02;16.10;99.90
1778;DHT22;886;50.082;8.222;2023-03-23T14:46:31;16.10;99.90
1778;DHT22;886;50.082;8.222;2023-03-23T14:49:00;16.10;99.90
1778;DHT22;886;50.082;8.222;2023-03-23T14:51:28;16.10;99.90
1778;DHT22;886;50.082;8.222;2023-03-23T14:53:54;16.20;99.90
1778;DHT22;886;50.082;8.222;2023-03-23T14:56:22;16.20;99.90
1778;DHT22;886;50.082;8.222;2023-03-23T14:58:53;16.30;99.90
1778;DHT22;886;50.082;8.222;2023-03-23T15:01:25;16.40;99.90
1778;DHT22;886;50.082;8.222;2023-03-23T15:06:26;16.50;99.90
1778;DHT22;886;50.082;8.222;2023-03-23T15:08:57;16.50;99.90
1778;DHT22;886;50.082;8.222;2023-03-23T15:11:29;16.60;99.90
1778;DHT22;886;50.082;8.222;2023-03-23T15:13:58;16.60;99.90
1778;DHT22;886;50.082;8.222;2023-03-23T15:16:31;16.60;99.90
1778;DHT22;886;50.082;8.222;2023-03-23T15:19:00;16.50;99.90
1778;DHT22;886;50.082;8.222;2023-03-23T15:21:29;16.40;99.90
1778;DHT22;886;50.082;8.222;2023-03-23T15:23:57;16.30;99.90
1778;DHT22;886;50.082;8.222;2023-03-23T15:26:30;16.30;99.90
1778;DHT22;886;50.082;8.222;2023-03-23T15:29:12;16.20;99.90
1778;DHT22;886;50.082;8.222;2023-03-23T15:31:44;16.20;99.90
1778;DHT22;886;50.082;8.222;2023-03-23T15:34:17;16.10;99.90
1778;DHT22;886;50.082;8.222;2023-03-23T15:36:52;16.20;99.90
1778;DHT22;886;50.082;8.222;2023-03-23T15:39:21;16.20;99.90
1778;DHT22;886;50.082;8.222;2023-03-23T15:41:50;16.10;99.90
1778;DHT22;886;50.082;8.222;2023-03-23T15:44:23;16.20;99.90
1778;DHT22;886;50.082;8.222;2023-03-23T15:47:13;16.20;99.90
1778;DHT22;886;50.082;8.222;2023-03-23T15:49:41;16.10;99.90
1778;DHT22;886;50.082;8.222;2023-03-23T15:52:09;16.00;99.90
1778;DHT22;886;50.082;8.222;2023-03-23T15:54:37;16.10;99.90
1778;DHT22;886;50.082;8.222;2023-03-23T15:57:22;16.10;99.90
1778;DHT22;886;50.082;8.222;2023-03-23T15:59:48;16.10;99.90
1778;DHT22;886;50.082;8.222;2023-03-23T16:02:20;16.00;99.90
1778;DHT22;886;50.082;8.222;2023-03-23T16:04:48;16.00;99.90
1778;DHT22;886;50.082;8.222;2023-03-23T16:07:34;16.00;99.90
1778;DHT22;886;50.082;8.222;2023-03-23T16:10:01;16.00;99.90
1778;DHT22;886;50.082;8.222;2023-03-23T16:12:29;16.00;99.90
1778;DHT22;886;50.082;8.222;2023-03-23T16:14:56;16.00;99.90
1778;DHT22;886;50.082;8.222;2023-03-23T16:17:25;15.90;99.90
1778;DHT22;886;50.082;8.222;2023-03-23T16:19:52;15.90;99.90
1778;DHT22;886;50.082;8.222;2023-03-23T16:22:19;15.80;99.90
1778;DHT22;886;50.082;8.222;2023-03-23T16:24:46;15.90;99.90
1778;DHT22;886;50.082;8.222;2023-03-23T16:27:14;15.80;99.90
1778;DHT22;886;50.082;8.222;2023-03-23T16:29:41;15.80;99.90
1778;DHT22;886;50.082;8.222;2023-03-23T16:32:30;15.80;99.90
1778;DHT22;886;50.082;8.222;2023-03-23T16:34:57;15.80;99.90
1778;DHT22;886;50.082;8.222;2023-03-23T16:37:24;15.80;99.90
1778;DHT22;886;50.082;8.222;2023-03-23T16:39:51;15.80;99.90
1778;DHT22;886;50.082;8.222;2023-03-23T16:42:18;15.70;99.90
1778;DHT22;886;50.082;8.222;2023-03-23T16:44:45;15.70;99.90
1778;DHT22;886;50.082;8.222;2023-03-23T16:47:14;15.70;99.90
1778;DHT22;886;50.082;8.222;2023-03-23T16:49:44;15.60;99.90
1778;DHT22;886;50.082;8.222;2023-03-23T16:52:28;15.60;99.90
1778;DHT22;886;50.082;8.222;2023-03-23T16:54:55;15.50;99.90